createdAt,value
2019-02-11T00:00:58.520Z,86.17
2019-02-11T00:03:28.468Z,86.27
2019-02-11T00:05:58.339Z,87.05
2019-02-11T00:08:28.690Z,87.40
2019-02-11T00:10:59.699Z,88.15
2019-02-11T00:13:30.011Z,88.39
2019-02-11T00:15:59.998Z,88.81
2019-02-11T00:18:29.901Z,88.63
2019-02-11T00:20:59.759Z,89.09
2019-02-11T00:23:29.897Z,89.37
2019-02-11T00:26:00.016Z,89.39
2019-02-11T00:28:29.903Z,89.55
2019-02-11T00:31:00.014Z,90.07
2019-02-11T00:33:29.860Z,90.17
2019-02-11T00:36:00.017Z,90.11
2019-02-11T00:38:29.926Z,90.14
2019-02-11T00:40:59.791Z,90.32
2019-02-11T00:43:29.631Z,90.29
2019-02-11T00:45:59.995Z,89.88
2019-02-11T00:48:29.857Z,89.57
2019-02-11T00:50:59.726Z,89.34
2019-02-11T00:53:29.559Z,89.33
2019-02-11T00:55:59.678Z,89.13
2019-02-11T00:58:29.616Z,89.02
2019-02-11T01:00:59.516Z,88.94
2019-02-11T01:03:29.607Z,88.61
2019-02-11T01:05:59.683Z,88.51
2019-02-11T01:08:29.850Z,88.15
2019-02-11T01:10:59.721Z,87.31
2019-02-11T01:13:29.868Z,86.63
2019-02-11T01:16:00.013Z,87.00
2019-02-11T01:18:29.890Z,86.44
2019-02-11T01:21:00.260Z,86.41
2019-02-11T01:23:30.378Z,86.57
2019-02-11T01:26:00.708Z,86.97
2019-02-11T01:28:30.577Z,87.05
2019-02-11T01:31:00.421Z,87.18
2019-02-11T01:33:30.332Z,87.03
2019-02-11T01:36:00.205Z,86.75
2019-02-11T01:38:30.091Z,86.33
2019-02-11T01:40:59.928Z,86.12
2019-02-11T01:43:35.947Z,85.51
2019-02-11T01:46:01.424Z,83.76
2019-02-11T01:48:31.314Z,83.37
2019-02-11T01:51:01.157Z,83.59
2019-02-11T01:53:31.056Z,82.78
2019-02-11T01:56:00.923Z,81.85
2019-02-11T01:58:30.794Z,80.64
2019-02-11T02:01:00.882Z,79.94
2019-02-11T02:03:30.750Z,80.03
2019-02-11T02:06:01.131Z,79.12
2019-02-11T02:08:31.242Z,78.58
2019-02-11T02:11:01.126Z,77.73
2019-02-11T02:13:31.543Z,78.39
2019-02-11T02:16:01.434Z,78.69
2019-02-11T02:18:31.775Z,78.77
2019-02-11T02:21:01.879Z,78.36
2019-02-11T02:23:31.720Z,78.35
2019-02-11T02:26:01.582Z,77.99
2019-02-11T02:28:31.508Z,77.61
2019-02-11T02:31:01.380Z,78.43
2019-02-11T02:33:31.243Z,77.85
2019-02-11T02:36:01.362Z,77.00
2019-02-11T02:38:31.238Z,77.15
2019-02-11T02:41:01.086Z,77.01
2019-02-11T02:43:31.131Z,77.75
2019-02-11T02:46:01.266Z,77.72
2019-02-11T02:48:31.396Z,77.95
2019-02-11T02:51:01.506Z,78.43
2019-02-11T02:53:31.409Z,78.82
2019-02-11T02:56:01.334Z,79.46
2019-02-11T02:58:31.362Z,79.56
2019-02-11T03:01:01.240Z,79.71
2019-02-11T03:03:31.112Z,79.72
2019-02-11T03:06:00.992Z,79.36
2019-02-11T03:08:30.860Z,79.21
2019-02-11T03:11:00.792Z,78.75
2019-02-11T03:13:30.741Z,78.60
2019-02-11T03:16:00.590Z,77.95
2019-02-11T03:18:30.706Z,78.46
2019-02-11T03:21:00.606Z,78.44
2019-02-11T03:23:30.756Z,78.69
2019-02-11T03:26:00.945Z,78.26
2019-02-11T03:28:31.083Z,76.98
2019-02-11T03:31:01.176Z,77.87
2019-02-11T03:33:31.034Z,78.15
2019-02-11T03:36:01.189Z,77.49
2019-02-11T03:38:31.059Z,77.86
2019-02-11T03:41:01.422Z,78.52
2019-02-11T03:43:31.286Z,79.38
2019-02-11T03:46:01.406Z,79.59
2019-02-11T03:48:31.383Z,80.24
2019-02-11T03:51:01.334Z,80.12
2019-02-11T03:53:31.415Z,79.28
2019-02-11T03:56:01.382Z,79.06
2019-02-11T03:58:31.745Z,78.72
2019-02-11T04:01:01.637Z,78.01
2019-02-11T04:03:31.751Z,78.08
2019-02-11T04:06:01.656Z,78.31
2019-02-11T04:08:31.546Z,78.73
2019-02-11T04:11:01.864Z,78.93
2019-02-11T04:13:31.956Z,79.27
2019-02-11T04:16:02.533Z,79.74
2019-02-11T04:18:32.690Z,79.62
2019-02-11T04:21:02.587Z,79.69
2019-02-11T04:23:32.489Z,79.45
2019-02-11T04:26:02.383Z,79.06
2019-02-11T04:28:32.557Z,79.17
2019-02-11T04:31:02.446Z,78.87
2019-02-11T04:33:32.553Z,78.73
2019-02-11T04:36:02.431Z,78.28
2019-02-11T04:38:32.303Z,77.65
2019-02-11T04:41:02.157Z,77.97
2019-02-11T04:43:32.286Z,77.98
2019-02-11T04:46:02.427Z,77.95
2019-02-11T04:48:32.331Z,78.16
2019-02-11T04:51:02.456Z,78.18
2019-02-11T04:53:32.345Z,78.62
2019-02-11T04:56:02.226Z,78.33
2019-02-11T04:58:32.759Z,78.06
2019-02-11T05:01:02.645Z,77.62
2019-02-11T05:03:32.789Z,77.74
2019-02-11T05:06:02.641Z,77.55
2019-02-11T05:08:32.732Z,77.73
2019-02-11T05:11:02.589Z,77.57
2019-02-11T05:13:32.722Z,77.29
2019-02-11T05:16:03.095Z,76.99
2019-02-11T05:18:33.223Z,76.85
2019-02-11T05:21:03.104Z,77.13
2019-02-11T05:23:33.272Z,76.63
2019-02-11T05:26:03.606Z,76.11
2019-02-11T05:28:33.453Z,76.33
2019-02-11T05:31:03.862Z,75.71
2019-02-11T05:33:33.977Z,76.05
2019-02-11T05:36:03.883Z,75.64
2019-02-11T05:38:33.997Z,75.84
2019-02-11T05:41:04.094Z,76.75
2019-02-11T05:43:34.037Z,76.14
2019-02-11T05:46:04.343Z,75.14
2019-02-11T05:48:34.920Z,75.03
2019-02-11T05:51:04.748Z,75.14
2019-02-11T05:53:35.031Z,75.62
2019-02-11T05:56:04.882Z,75.71
2019-02-11T05:58:34.744Z,75.64
2019-02-11T06:01:04.677Z,75.77
2019-02-11T06:03:34.555Z,76.05
2019-02-11T06:06:04.422Z,75.90
2019-02-11T06:08:34.315Z,75.69
2019-02-11T06:11:04.158Z,75.50
2019-02-11T06:13:34.358Z,75.36
2019-02-11T06:16:04.265Z,73.90
2019-02-11T06:18:34.409Z,74.33
2019-02-11T06:21:04.276Z,74.46
2019-02-11T06:23:34.149Z,73.75
2019-02-11T06:26:04.066Z,73.97
2019-02-11T06:28:34.484Z,73.37
2019-02-11T06:31:04.442Z,73.14
2019-02-11T06:33:34.306Z,73.29
2019-02-11T06:36:11.883Z,72.95
2019-02-11T06:38:36.019Z,73.40
2019-02-11T06:41:05.894Z,73.19
2019-02-11T06:43:36.306Z,73.07
2019-02-11T06:46:06.252Z,72.79
2019-02-11T06:48:36.461Z,72.69
2019-02-11T06:51:06.344Z,72.55
2019-02-11T06:53:36.702Z,71.92
2019-02-11T06:56:06.693Z,72.25
2019-02-11T06:58:36.818Z,72.25
2019-02-11T07:01:06.956Z,73.24
2019-02-11T07:03:36.825Z,72.13
2019-02-11T07:06:06.935Z,72.23
2019-02-11T07:08:36.801Z,72.53
2019-02-11T07:11:06.647Z,72.48
2019-02-11T07:13:36.481Z,72.16
2019-02-11T07:16:06.448Z,72.09
2019-02-11T07:18:37.223Z,71.70
2019-02-11T07:21:07.340Z,71.75
2019-02-11T07:23:37.211Z,71.36
2019-02-11T07:26:07.307Z,71.47
2019-02-11T07:28:37.146Z,71.61
2019-02-11T07:31:07.136Z,71.40
2019-02-11T07:33:37.056Z,72.00
2019-02-11T07:36:06.902Z,72.22
2019-02-11T07:38:36.751Z,72.30
2019-02-11T07:41:06.614Z,72.61
2019-02-11T07:43:41.552Z,72.82
2019-02-11T07:46:39.528Z,73.07
2019-02-11T07:49:09.396Z,73.46
2019-02-11T07:51:42.310Z,73.66
2019-02-11T07:54:12.345Z,73.37
2019-02-11T07:56:42.339Z,72.48
2019-02-11T07:59:12.203Z,72.31
2019-02-11T08:01:42.338Z,72.23
2019-02-11T08:04:12.263Z,72.31
2019-02-11T08:06:42.103Z,71.78
2019-02-11T08:09:12.884Z,71.51
2019-02-11T08:11:42.713Z,70.78
2019-02-11T08:14:12.801Z,69.87
2019-02-11T08:16:42.677Z,68.97
2019-02-11T08:19:12.790Z,67.71
2019-02-11T08:21:42.624Z,67.88
2019-02-11T08:24:12.962Z,67.62
2019-02-11T08:26:42.840Z,66.60
2019-02-11T08:29:12.709Z,67.41
2019-02-11T08:31:42.801Z,68.26
2019-02-11T08:34:12.962Z,68.94
2019-02-11T08:36:42.817Z,69.70
2019-02-11T08:39:12.835Z,70.14
2019-02-11T08:41:42.693Z,70.79
2019-02-11T08:44:12.561Z,71.48
2019-02-11T08:46:42.379Z,71.87
2019-02-11T08:49:12.224Z,72.46
2019-02-11T08:51:42.086Z,73.66
2019-02-11T08:54:12.219Z,75.67
2019-02-11T08:56:42.080Z,76.81
2019-02-11T08:59:11.941Z,78.17
2019-02-11T09:01:41.793Z,78.56
2019-02-11T09:04:18.804Z,79.01
2019-02-11T09:06:43.478Z,79.86
2019-02-11T09:09:13.314Z,78.48
2019-02-11T09:11:43.403Z,80.48
2019-02-11T09:14:13.524Z,80.57
2019-02-11T09:16:43.399Z,78.88
2019-02-11T09:19:13.244Z,76.48
2019-02-11T09:21:43.082Z,76.59
2019-02-11T09:24:12.970Z,75.26
2019-02-11T09:26:42.914Z,74.93
2019-02-11T09:29:12.735Z,74.87
2019-02-11T09:31:42.889Z,75.63
2019-02-11T09:34:12.774Z,76.71
2019-02-11T09:36:42.720Z,77.46
2019-02-11T09:39:12.864Z,76.18
2019-02-11T09:41:42.943Z,74.94
2019-02-11T09:44:12.860Z,75.34
2019-02-11T09:46:42.779Z,74.95
2019-02-11T09:49:12.629Z,75.07
2019-02-11T09:51:46.515Z,72.49
2019-02-11T09:54:16.661Z,71.03
2019-02-11T09:56:46.912Z,72.03
2019-02-11T09:59:16.751Z,70.09
2019-02-11T10:01:46.607Z,65.10
2019-02-11T10:04:16.713Z,66.29
2019-02-11T10:06:46.595Z,66.41
2019-02-11T10:09:16.459Z,67.05
2019-02-11T10:11:46.550Z,67.36
2019-02-11T10:14:16.397Z,65.85
2019-02-11T10:16:46.328Z,65.62
2019-02-11T10:19:16.186Z,63.09
2019-02-11T10:21:46.650Z,61.44
2019-02-11T10:24:16.651Z,60.63
2019-02-11T10:26:47.212Z,61.25
2019-02-11T10:29:17.611Z,61.85
2019-02-11T10:31:47.497Z,61.04
2019-02-11T10:34:17.620Z,58.97
2019-02-11T10:36:47.750Z,59.27
2019-02-11T10:39:17.644Z,59.17
2019-02-11T10:41:48.434Z,56.24
2019-02-11T10:44:18.320Z,54.26
2019-02-11T10:46:48.158Z,53.85
2019-02-11T10:49:18.094Z,53.75
2019-02-11T10:51:47.976Z,55.43
2019-02-11T10:54:17.947Z,58.34
2019-02-11T10:56:47.877Z,59.96
2019-02-11T10:59:17.898Z,61.93
2019-02-11T11:01:48.042Z,63.28
2019-02-11T11:04:18.482Z,64.37
2019-02-11T11:06:48.389Z,64.88
2019-02-11T11:09:18.528Z,64.94
2019-02-11T11:11:48.636Z,66.52
2019-02-11T11:14:18.535Z,68.28
2019-02-11T11:16:48.391Z,70.53
2019-02-11T11:19:18.489Z,71.46
2019-02-11T11:21:48.319Z,68.79
2019-02-11T11:24:18.387Z,67.35
2019-02-11T11:26:48.486Z,67.22
2019-02-11T11:29:18.485Z,65.27
2019-02-11T11:31:48.463Z,62.71
2019-02-11T11:34:18.457Z,62.34
2019-02-11T11:36:48.432Z,60.28
2019-02-11T11:39:22.553Z,59.41
2019-02-11T11:41:52.465Z,56.15
2019-02-11T11:44:22.317Z,56.26
2019-02-11T11:46:52.540Z,56.04
2019-02-11T11:49:22.640Z,55.17
2019-02-11T11:51:52.596Z,52.47
2019-02-11T11:54:22.738Z,52.53
2019-02-11T11:56:52.934Z,52.14
2019-02-11T11:59:22.806Z,51.28
2019-02-11T12:01:52.744Z,51.48
2019-02-11T12:04:22.694Z,50.57
2019-02-11T12:06:52.531Z,50.59
2019-02-11T12:09:22.690Z,50.14
2019-02-11T12:11:52.790Z,51.23
2019-02-11T12:14:22.936Z,51.44
2019-02-11T12:16:57.754Z,50.93
2019-02-11T12:19:24.929Z,50.64
2019-02-11T12:21:54.800Z,50.02
2019-02-11T12:24:24.704Z,49.23
2019-02-11T12:26:54.595Z,48.77
2019-02-11T12:29:24.439Z,48.39
2019-02-11T12:31:54.514Z,44.09
2019-02-11T12:34:24.387Z,45.71
2019-02-11T12:36:55.403Z,45.39
2019-02-11T12:39:25.581Z,45.77
2019-02-11T12:41:55.688Z,47.23
2019-02-11T12:44:25.617Z,49.17
2019-02-11T12:47:12.772Z,52.65
2019-02-11T12:49:27.137Z,55.42
2019-02-11T12:51:57.294Z,56.84
2019-02-11T12:54:27.132Z,56.48
2019-02-11T12:56:57.037Z,54.35
2019-02-11T12:59:27.188Z,53.30
2019-02-11T13:01:57.062Z,52.99
2019-02-11T13:04:26.948Z,52.10
2019-02-11T13:06:56.785Z,50.27
2019-02-11T13:09:26.936Z,50.12
2019-02-11T13:11:56.872Z,50.69
2019-02-11T13:14:27.066Z,49.14
2019-02-11T13:16:56.962Z,49.00
2019-02-11T13:19:26.807Z,50.03
2019-02-11T13:21:56.910Z,52.02
2019-02-11T13:24:27.069Z,53.27
2019-02-11T13:26:56.978Z,55.20
2019-02-11T13:29:26.896Z,55.41
2019-02-11T13:31:56.861Z,58.45
2019-02-11T13:34:26.788Z,60.27
2019-02-11T13:36:57.207Z,60.99
2019-02-11T13:39:27.201Z,63.15
2019-02-11T13:41:57.121Z,64.08
2019-02-11T13:44:27.256Z,65.95
2019-02-11T13:46:57.123Z,66.88
2019-02-11T13:49:27.166Z,67.79
2019-02-11T13:51:57.212Z,67.25
2019-02-11T13:54:27.196Z,67.77
2019-02-11T13:56:57.417Z,66.97
2019-02-11T13:59:27.414Z,66.82
2019-02-11T14:01:57.607Z,65.83
2019-02-11T14:04:28.566Z,64.05
2019-02-11T14:06:58.741Z,63.52
2019-02-11T14:09:28.740Z,63.69
2019-02-11T14:11:58.851Z,63.79
2019-02-11T14:14:30.433Z,64.86
2019-02-11T14:17:00.378Z,64.88
2019-02-11T14:19:30.471Z,65.41
2019-02-11T14:22:00.697Z,66.90
2019-02-11T14:24:30.580Z,68.06
2019-02-11T14:27:00.430Z,67.82
2019-02-11T14:29:30.260Z,68.15
2019-02-11T14:32:00.250Z,68.65
2019-02-11T14:34:30.372Z,68.92
2019-02-11T14:37:00.478Z,69.20
2019-02-11T14:39:30.613Z,69.30
2019-02-11T14:42:00.905Z,69.28
2019-02-11T14:44:31.233Z,68.62
2019-02-11T14:47:01.147Z,68.57
2019-02-11T14:49:30.958Z,69.10
2019-02-11T14:52:00.796Z,69.09
2019-02-11T14:54:31.167Z,68.91
2019-02-11T14:57:01.242Z,69.09
2019-02-11T14:59:31.634Z,70.47
2019-02-11T15:02:01.690Z,70.96
2019-02-11T15:04:31.828Z,71.21
2019-02-11T15:07:01.918Z,71.89
2019-02-11T15:09:31.771Z,72.01
2019-02-11T15:12:01.871Z,72.54
2019-02-11T15:14:32.044Z,73.34
2019-02-11T15:17:02.120Z,73.67
2019-02-11T15:19:31.987Z,73.16
2019-02-11T15:22:02.073Z,74.94
2019-02-11T15:24:32.179Z,75.78
2019-02-11T15:27:02.053Z,75.46
2019-02-11T15:29:32.173Z,75.80
2019-02-11T15:32:02.257Z,75.47
2019-02-11T15:34:32.110Z,76.01
2019-02-11T15:37:01.953Z,76.37
2019-02-11T15:39:31.832Z,76.54
2019-02-11T15:42:01.917Z,76.37
2019-02-11T15:44:32.221Z,75.44
2019-02-11T15:47:02.051Z,74.79
2019-02-11T15:49:31.922Z,74.24
2019-02-11T15:52:02.014Z,74.34
2019-02-11T15:54:31.844Z,73.87
2019-02-11T15:57:01.970Z,73.38
2019-02-11T15:59:31.871Z,72.14
2019-02-11T16:02:01.724Z,70.98
2019-02-11T16:04:31.665Z,70.43
2019-02-11T16:07:01.488Z,70.26
2019-02-11T16:09:31.439Z,70.56
2019-02-11T16:12:01.417Z,70.35
2019-02-11T16:14:31.871Z,70.43
2019-02-11T16:17:02.054Z,70.06
2019-02-11T16:19:31.884Z,70.85
2019-02-11T16:22:01.733Z,70.84
2019-02-11T16:24:31.594Z,70.67
2019-02-11T16:27:01.436Z,70.47
2019-02-11T16:29:31.582Z,70.32
2019-02-11T16:32:01.691Z,70.51
2019-02-11T16:34:31.594Z,70.20
2019-02-11T16:37:01.453Z,70.18
2019-02-11T16:39:31.521Z,70.99
2019-02-11T16:42:01.395Z,71.73
2019-02-11T16:44:31.515Z,72.24
2019-02-11T16:47:01.597Z,73.08
2019-02-11T16:49:31.487Z,73.12
2019-02-11T16:52:01.360Z,72.91
2019-02-11T16:54:31.241Z,72.28
2019-02-11T16:57:01.066Z,72.17
2019-02-11T16:59:31.211Z,71.76
2019-02-11T17:02:01.048Z,71.87
2019-02-11T17:04:30.934Z,71.14
2019-02-11T17:07:01.081Z,70.78
2019-02-11T17:09:30.960Z,70.16
2019-02-11T17:12:00.811Z,69.87
2019-02-11T17:14:30.665Z,69.81
2019-02-11T17:17:00.547Z,69.42
2019-02-11T17:19:30.614Z,68.80
2019-02-11T17:22:00.801Z,68.79
2019-02-11T17:24:30.896Z,69.21
2019-02-11T17:27:00.753Z,68.32
2019-02-11T17:29:30.693Z,68.02
2019-02-11T17:32:00.945Z,67.52
2019-02-11T17:34:30.944Z,66.89
2019-02-11T17:37:00.814Z,67.13
2019-02-11T17:39:30.864Z,67.60
2019-02-11T17:42:01.277Z,67.66
2019-02-11T17:44:31.353Z,67.15
2019-02-11T17:47:01.454Z,67.40
2019-02-11T17:49:32.193Z,67.17
2019-02-11T17:52:02.334Z,67.31
2019-02-11T17:54:32.277Z,67.64
2019-02-11T17:57:02.123Z,67.88
2019-02-11T17:59:32.108Z,67.69
2019-02-11T18:02:02.051Z,67.56
2019-02-11T18:04:32.117Z,67.54
2019-02-11T18:07:01.984Z,67.35
2019-02-11T18:09:31.875Z,67.12
2019-02-11T18:12:01.738Z,66.85
2019-02-11T18:14:31.669Z,66.11
2019-02-11T18:17:01.751Z,65.73
2019-02-11T18:19:31.860Z,65.53
2019-02-11T18:22:01.717Z,64.66
2019-02-11T18:24:31.591Z,64.18
2019-02-11T18:27:01.922Z,64.09
2019-02-11T18:29:31.829Z,63.79
2019-02-11T18:32:01.707Z,63.45
2019-02-11T18:34:31.535Z,63.15
2019-02-11T18:37:01.361Z,63.06
2019-02-11T18:39:31.351Z,61.75
2019-02-11T18:42:01.434Z,61.19
2019-02-11T18:44:31.534Z,60.67
2019-02-11T18:47:01.412Z,60.27
2019-02-11T18:49:34.534Z,60.16
2019-02-11T18:52:02.811Z,60.50
2019-02-11T18:54:32.666Z,60.57
2019-02-11T18:57:02.715Z,60.76
2019-02-11T18:59:32.533Z,60.87
2019-02-11T19:02:02.673Z,61.38
2019-02-11T19:04:32.698Z,61.91
2019-02-11T19:07:02.569Z,62.60
2019-02-11T19:09:32.440Z,62.72
2019-02-11T19:12:02.388Z,63.16
2019-02-11T19:14:32.708Z,63.31
2019-02-11T19:17:02.820Z,63.08
2019-02-11T19:19:32.632Z,63.49
2019-02-11T19:22:02.537Z,63.55
2019-02-11T19:24:32.381Z,63.44
2019-02-11T19:27:02.221Z,63.16
2019-02-11T19:29:32.263Z,63.16
2019-02-11T19:32:02.362Z,63.02
2019-02-11T19:34:32.253Z,63.25
2019-02-11T19:37:02.177Z,63.26
2019-02-11T19:39:32.097Z,63.16
2019-02-11T19:42:01.965Z,63.49
2019-02-11T19:44:31.832Z,63.49
2019-02-11T19:47:34.769Z,63.62
2019-02-11T19:50:05.355Z,63.37
2019-02-11T19:52:35.172Z,63.34
2019-02-11T19:55:05.610Z,63.31
2019-02-11T19:57:35.730Z,63.54
2019-02-11T20:00:08.412Z,63.79
2019-02-11T20:02:38.270Z,63.89
2019-02-11T20:05:09.008Z,63.96
2019-02-11T20:07:39.302Z,63.65
2019-02-11T20:10:11.253Z,64.13
2019-02-11T20:12:41.313Z,63.69
2019-02-11T20:15:14.734Z,63.46
2019-02-11T20:17:44.820Z,63.96
2019-02-11T20:20:17.790Z,63.81
2019-02-11T20:22:47.703Z,64.13
2019-02-11T20:25:17.708Z,64.12
2019-02-11T20:27:47.949Z,63.89
2019-02-11T20:30:20.966Z,64.07
2019-02-11T20:32:51.064Z,63.66
2019-02-11T20:35:21.480Z,64.05
2019-02-11T20:37:51.552Z,62.75
2019-02-11T20:40:22.807Z,62.21
2019-02-11T20:42:52.654Z,62.38
2019-02-11T20:45:26.953Z,62.96
2019-02-11T20:47:57.045Z,63.38
2019-02-11T20:50:27.370Z,63.40
2019-02-11T20:52:57.226Z,63.62
2019-02-11T20:55:27.361Z,64.16
2019-02-11T20:57:58.285Z,64.51
2019-02-11T21:00:28.542Z,65.02
2019-02-11T21:02:58.374Z,65.65
2019-02-11T21:05:28.490Z,66.83
2019-02-11T21:07:58.559Z,67.88
2019-02-11T21:10:28.672Z,68.73
2019-02-11T21:12:59.005Z,69.33
2019-02-11T21:15:28.852Z,69.63
2019-02-11T21:17:58.733Z,69.73
2019-02-11T21:20:32.650Z,69.76
2019-02-11T21:23:02.550Z,69.72
2019-02-11T21:25:32.354Z,69.37
2019-02-11T21:28:02.244Z,69.68
2019-02-11T21:30:32.427Z,69.90
2019-02-11T21:33:02.619Z,70.09
2019-02-11T21:35:32.713Z,70.11
2019-02-11T21:38:03.029Z,70.14
2019-02-11T21:40:32.912Z,70.13
2019-02-11T21:43:02.981Z,70.00
2019-02-11T21:45:32.822Z,70.40
2019-02-11T21:48:02.701Z,70.44
2019-02-11T21:50:32.754Z,70.69
2019-02-11T21:53:02.679Z,70.86
2019-02-11T21:55:32.540Z,71.21
2019-02-11T21:58:02.434Z,71.28
2019-02-11T22:00:32.331Z,71.34
2019-02-11T22:03:02.181Z,71.25
2019-02-11T22:05:32.306Z,71.11
2019-02-11T22:08:02.463Z,71.09
2019-02-11T22:10:32.333Z,71.66
2019-02-11T22:13:02.423Z,72.09
2019-02-11T22:19:31.439Z,72.43
2019-02-11T22:22:01.605Z,73.01
2019-02-11T22:24:31.503Z,72.88
2019-02-11T22:27:01.361Z,73.15
2019-02-11T22:29:31.219Z,73.60
2019-02-11T22:32:01.066Z,73.64
2019-02-11T22:34:30.939Z,73.46
2019-02-11T22:37:00.810Z,73.24
2019-02-11T22:39:30.676Z,72.99
2019-02-11T22:42:00.773Z,72.92
2019-02-11T22:44:30.833Z,72.54
2019-02-11T22:47:00.707Z,72.45
2019-02-11T22:49:30.554Z,72.52
2019-02-11T22:52:00.416Z,73.02
2019-02-11T22:54:30.486Z,73.16
2019-02-11T22:57:00.669Z,73.29
2019-02-11T22:59:30.511Z,73.64
2019-02-11T23:02:00.502Z,74.02
2019-02-11T23:04:30.372Z,73.92
2019-02-11T23:07:00.269Z,74.15
2019-02-11T23:09:30.398Z,74.39
2019-02-11T23:12:00.758Z,74.64
2019-02-11T23:14:30.620Z,74.50
2019-02-11T23:17:00.707Z,74.23
2019-02-11T23:19:30.582Z,74.32
2019-02-11T23:22:00.402Z,74.49
2019-02-11T23:24:30.487Z,74.34
2019-02-11T23:27:00.579Z,74.08
2019-02-11T23:29:30.457Z,73.64
2019-02-11T23:32:00.326Z,73.54
2019-02-11T23:34:30.614Z,73.64
2019-02-11T23:37:00.468Z,73.54
2019-02-11T23:39:30.290Z,73.51
2019-02-11T23:42:00.127Z,73.43
2019-02-11T23:44:29.949Z,72.92
2019-02-11T23:47:00.053Z,72.96
2019-02-11T23:49:29.917Z,72.84
2019-02-11T23:51:59.991Z,73.71
2019-02-11T23:54:29.823Z,74.24
2019-02-11T23:56:59.927Z,74.56
2019-02-11T23:59:29.985Z,74.45
